Список аэропортов
Фактическая погода:

26 апреля, 12:00
Температура: +10°C (+8.0*)
Ветер: южный 4 м/с
Давление: *748 мм
разорв. обл.
570 м
облачно
Время (МСК)Темп. СВетерВлажностьДавлениеОблачностьОсадки
09:00+7Ю, 3 м/с81%998 гПаоблачно
10:00+10Ю, 3 м/с67%998 гПаоблачно
11:00+12Ю, 3 м/с59%997 гПаоблачно
12:00+12Ю, 3 м/с60%997 гПаоблачносл. дождь
13:00+12Ю, 4 м/с63%997 гПаоблачнодождь
14:00+12Ю, 4 м/с60%997 гПаоблачнодождь
15:00+12Ю, 4 м/с59%996 гПаоблачносл. дождь
16:00+12Ю, 4 м/с57%996 гПаоблачно
17:00+12ЮВ, 3 м/с56%995 гПаоблачно
18:00+12ЮВ, 3 м/с58%996 гПаоблачно
19:00+10В, 2 м/с67%995 гПаоблачносл. дождь
20:00+9В, 2 м/с79%995 гПаоблачнодождь
21:00+9ЮВ, 2 м/с87%996 гПаоблачнодождь
22:00+8ЮВ, 2 м/с90%996 гПаоблачнодождь
23:00+8Штиль 80%996 гПаоблачнодождь
27 апреля
00:00+8СЗ, 2 м/с79%996 гПаоблачнодождь
01:00+8СЗ, 2 м/с83%996 гПаоблачнодождь
02:00+8З, 3 м/с86%997 гПаоблачнодождь
03:00+7СЗ, 6 м/с92%998 гПаоблачнодождь
04:00+6СЗ, 7 м/с89%999 гПаоблачнодождь
05:00+6СЗ, 6 м/с89%1000 гПаоблачнодождь
06:00+6З, 5 м/с92%1001 гПаоблачнодождь
07:00+6З, 5 м/с89%1001 гПаоблачносл. дождь
08:00+6З, 5 м/с86%1002 гПаоблачно
09:00+8З, 5 м/с82%1002 гПаоблачно
10:00+9З, 6 м/с73%1004 гПаясно
11:00+10З, 6 м/с66%1004 гПамалооблачно
12:00+11З, 6 м/с59%1005 гПас прояснениями
13:00+12З, 6 м/с56%1005 гПамалооблачно
14:00+12З, 6 м/с52%1006 гПаясно
15:00+12З, 6 м/с52%1006 гПаясно
16:00+12З, 5 м/с53%1006 гПас прояснениями
17:00+11З, 5 м/с54%1006 гПаясно
18:00+11З, 4 м/с51%1006 гПаясно
19:00+10ЮЗ, 3 м/с57%1006 гПаясно
20:00+8ЮЗ, 2 м/с67%1007 гПаясно
21:00+6Ю, 2 м/с75%1007 гПамалооблачно
22:00+6ЮЗ, 3 м/с81%1008 гПаоблачносл. дождь
23:00+4З, 2 м/с92%1008 гПаясно
28 апреля
00:00+3З, 2 м/с98%1008 гПаясно
01:00+2З, 2 м/с99%1008 гПамалооблачно
02:00+2З, 2 м/с99%1008 гПаоблачно
03:00+2ЮЗ, 2 м/с99%1008 гПаоблачно
04:00+1З, 2 м/с99%1008 гПас прояснениями
05:00+1З, 2 м/с98%1008 гПамалооблачно
06:00+2З, 3 м/с96%1009 гПамалооблачно
07:00+4З, 3 м/с88%1008 гПас прояснениями
08:00+5З, 4 м/с81%1008 гПаоблачно
09:00+7З, 4 м/с72%1009 гПаоблачно